• Join FlightAware (Why Join?)
  • Login
  • US Flag 
08:50AM EDT


 

Airport Tracker/Info


-or-


 

Live Flight TrackerFlight Track Log ✈ THY1663 ✈ 05-May-2012 ✈ LTBA / IST - EDDH / HAM

Flight Track Log - Related Links

Times and Time Zones

All times are in EDT time to prevent confusion due to time zone crossing. See the THY1663 flight status page for this flight to view local times or setup timezone preferences in your user account.

Time Position Orientation Groundspeed Altitude Reporting Facility
EDT Latitude Longitude Course Direction KTS MPH feet Rate Location/Type
08:33AM 41.3899 28.3809 321° Northwest  Level Estimated
08:34AM 41.4808 28.2830 321° Northwest  Level Estimated
08:35AM 41.5716 28.1849 321° Northwest  Level Estimated
08:36AM 41.6623 28.0865 321° Northwest  Level Estimated
08:37AM 41.7529 27.9878 321° Northwest  Level Estimated
08:38AM 41.8435 27.8888 321° Northwest  Level Estimated
08:39AM 41.9339 27.7896 321° Northwest  Level Estimated
08:40AM 42.0243 27.6901 321° Northwest  Level Estimated
08:41AM 42.1146 27.5903 321° Northwest  Level Estimated
08:42AM 42.2048 27.4902 321° Northwest  Level Estimated
08:43AM 42.2949 27.3898 320° Northwest  Level Estimated
08:44AM 42.3849 27.2891 320° Northwest  Level Estimated
08:45AM 42.4748 27.1882 320° Northwest  Level Estimated
08:46AM 42.5647 27.0869 320° Northwest  Level Estimated
08:47AM 42.6544 26.9854 320° Northwest  Level Estimated
08:48AM 42.7441 26.8835 320° Northwest  Level Estimated
08:49AM 42.8337 26.7814 320° Northwest  Level Estimated
08:50AM 42.9232 26.6790 320° Northwest  Level Estimated
08:51AM 43.0126 26.5763 320° Northwest  Level Estimated
08:52AM 43.1019 26.4732 320° Northwest  Level Estimated
08:53AM 43.1911 26.3699 320° Northwest  Level Estimated
08:54AM 43.2802 26.2663 320° Northwest  Level Estimated
08:55AM 43.3692 26.1624 320° Northwest  Level Estimated
08:56AM 43.4581 26.0581 320° Northwest  Level Estimated
08:57AM 43.5470 25.9536 319° Northwest  Level Estimated
08:58AM 43.6357 25.8488 319° Northwest  Level Estimated
08:59AM 43.7243 25.7436 319° Northwest  Level Estimated
09:00AM 43.8129 25.6381 319° Northwest  Level Estimated
09:01AM 43.9013 25.5324 319° Northwest  Level Estimated
09:02AM 43.9897 25.4263 319° Northwest  Level Estimated
09:03AM 44.0779 25.3198 319° Northwest  Level Estimated
09:04AM 44.1661 25.2131 319° Northwest  Level Estimated
09:05AM 44.2542 25.1061 319° Northwest  Level Estimated
09:06AM 44.3421 24.9987 319° Northwest  Level Estimated
09:07AM 44.4300 24.8910 319° Northwest  Level Estimated
09:08AM 44.5177 24.7830 319° Northwest  Level Estimated
09:09AM 44.6054 24.6746 319° Northwest  Level Estimated
09:10AM 44.6929 24.5660 319° Northwest  Level Estimated
09:11AM 44.7803 24.4570 318° Northwest  Level Estimated
09:12AM 44.8677 24.3476 318° Northwest  Level Estimated
09:13AM 44.9549 24.2380 318° Northwest  Level Estimated
09:14AM 45.0420 24.1280 318° Northwest  Level Estimated
09:15AM 45.1291 24.0177 318° Northwest  Level Estimated
09:16AM 45.2160 23.9070 318° Northwest  Level Estimated
09:17AM 45.3028 23.7960 318° Northwest  Level Estimated
09:18AM 45.3895 23.6846 318° Northwest  Level Estimated
09:19AM 45.4761 23.5729 318° Northwest  Level Estimated
09:20AM 45.5625 23.4609 318° Northwest  Level Estimated
09:21AM 45.6489 23.3485 318° Northwest  Level Estimated
09:22AM 45.7352 23.2358 318° Northwest  Level Estimated
09:23AM 45.8213 23.1227 317° Northwest  Level Estimated
09:24AM 45.9074 23.0093 317° Northwest  Level Estimated
09:25AM 45.9933 22.8955 317° Northwest  Level Estimated
09:26AM 46.0791 22.7814 317° Northwest  Level Estimated
09:27AM 46.1648 22.6669 317° Northwest  Level Estimated
09:28AM 46.2504 22.5521 317° Northwest  Level Estimated
09:29AM 46.3359 22.4369 317° Northwest  Level Estimated
09:30AM 46.4212 22.3213 317° Northwest  Level Estimated
09:31AM 46.5065 22.2054 317° Northwest  Level Estimated
09:32AM 46.5916 22.0891 317° Northwest  Level Estimated
09:33AM 46.6766 21.9725 317° Northwest  Level Estimated
09:34AM 46.7615 21.8554 317° Northwest  Level Estimated
09:35AM 46.8462 21.7381 316° Northwest  Level Estimated
09:36AM 46.9309 21.6203 316° Northwest  Level Estimated
09:37AM 47.0154 21.5022 316° Northwest  Level Estimated
09:38AM 47.0998 21.3836 316° Northwest  Level Estimated
09:39AM 47.1841 21.2648 316° Northwest  Level Estimated
09:40AM 47.2682 21.1455 316° Northwest  Level Estimated
09:41AM 47.3522 21.0259 316° Northwest  Level Estimated
09:42AM 47.4361 20.9058 316° Northwest  Level Estimated
09:43AM 47.5199 20.7854 316° Northwest  Level Estimated
09:44AM 47.6036 20.6647 316° Northwest  Level Estimated
09:45AM 47.6871 20.5435 316° Northwest  Level Estimated
09:46AM 47.7705 20.4219 316° Northwest  Level Estimated
09:47AM 47.8538 20.3000 315° West  Level Estimated
09:48AM 47.9369 20.1776 315° West  Level Estimated
09:49AM 48.0199 20.0549 315° West  Level Estimated
09:50AM 48.1028 19.9317 315° West  Level Estimated
09:51AM 48.1856 19.8082 315° West  Level Estimated
09:52AM 48.2682 19.6843 315° West  Level Estimated
09:53AM 48.3507 19.5599 315° West  Level Estimated
09:54AM 48.4330 19.4352 315° West  Level Estimated
09:55AM 48.5152 19.3101 315° West  Level Estimated
09:56AM 48.5973 19.1845 315° West  Level Estimated
09:57AM 48.6792 19.0586 315° West  Level Estimated
09:58AM 48.7610 18.9322 314° West  Level Estimated
09:59AM 48.8427 18.8054 314° West  Level Estimated
10:00AM 48.9242 18.6782 314° West  Level Estimated
10:01AM 49.0056 18.5506 314° West  Level Estimated
10:02AM 49.0868 18.4226 314° West  Level Estimated
10:03AM 49.1679 18.2942 314° West  Level Estimated
10:04AM 49.2489 18.1653 314° West  Level Estimated
10:05AM 49.3297 18.0360 314° West  Level Estimated
10:06AM 49.4104 17.9063 314° West  Level Estimated
10:07AM 49.4909 17.7762 314° West  Level Estimated
10:08AM 49.5712 17.6456 313° West  Level Estimated
10:09AM 49.6515 17.5146 313° West  Level Estimated
10:10AM 49.7315 17.3832 313° West  Level Estimated
10:11AM 49.8115 17.2513 313° West  Level Estimated
10:12AM 49.8913 17.1190 313° West  Level Estimated
10:13AM 49.9709 16.9863 313° West  Level Estimated
10:14AM 50.0504 16.8531 313° West  Level Estimated
10:15AM 50.1297 16.7195 313° West  Level Estimated
10:16AM 50.2089 16.5854 313° West  Level Estimated
10:17AM 50.2879 16.4509 313° West  Level Estimated
10:18AM 50.3667 16.3160 312° West  Level Estimated
10:19AM 50.4454 16.1805 312° West  Level Estimated
10:20AM 50.5240 16.0447 312° West  Level Estimated
10:21AM 50.6024 15.9084 312° West  Level Estimated
10:22AM 50.6806 15.7716 312° West  Level Estimated
10:23AM 50.7587 15.6344 312° West  Level Estimated
10:24AM 50.8366 15.4967 312° West  Level Estimated
10:25AM 50.9143 15.3586 312° West  Level Estimated
10:26AM 50.9919 15.2200 312° West  Level Estimated
10:27AM 51.0693 15.0810 311° West  Level Estimated
10:28AM 51.1465 14.9414 311° West  Level Estimated
10:29AM 51.2236 14.8014 311° West  Level Estimated
10:30AM 51.3005 14.6610 311° West  Level Estimated
10:31AM 51.3773 14.5201 311° West  Level Estimated
10:32AM 51.4538 14.3786 311° West  Level Estimated
10:33AM 51.5302 14.2368 311° West  Level Estimated
10:34AM 51.6065 14.0944 311° West  Level Estimated
10:35AM 51.6825 13.9516 311° West  Level Estimated
10:36AM 51.7584 13.8083 310° West  Level Estimated
10:37AM 51.8341 13.6645 310° West  Level Estimated
10:38AM 51.9097 13.5202 310° West  Level Estimated
10:39AM 51.9850 13.3754 310° West  Level Estimated
10:40AM 52.0602 13.2302 310° West  Level Estimated
10:41AM 52.1352 13.0844 310° West  Level Estimated
10:42AM 52.2100 12.9382 310° West  Level Estimated
10:43AM 52.2847 12.7915 310° West  Level Estimated
10:44AM 52.3591 12.6442 310° West  Level Estimated
10:45AM 52.4334 12.4965 309° West  Level Estimated
10:46AM 52.5075 12.3483 309° West  Level Estimated
10:47AM 52.5814 12.1996 309° West  Level Estimated
10:48AM 52.6551 12.0504 309° West  Level Estimated
10:49AM 52.7286 11.9007 309° West  Level Estimated
10:50AM 52.8020 11.7504 309° West  Level Estimated
10:51AM 52.8751 11.5997 309° West  Level Estimated
10:52AM 52.9481 11.4485 309° West  Level Estimated
10:53AM 53.0209 11.2967 308° West  Level Estimated
10:54AM 53.0934 11.1445 308° West  Level Estimated
10:55AM 53.1658 10.9917 308° West  Level Estimated
10:56AM 53.2380 10.8384 308° West  Level Estimated
10:57AM 53.3100 10.6846 308° West  Level Estimated
10:58AM 53.3817 10.5302 308° West  Level Estimated
10:59AM 53.4533 10.3754 308° West  Level Estimated
11:00AM 53.5247 10.2200 308° West  Level Estimated
11:01AM 53.5959 10.0641 307° West  Level Estimated
11:02AM 53.6669 9.9077 127° Southeast  Level Estimated
11:03AM 53.5959 10.0641 307° West  Level Estimated
11:04AM 53.6669 9.9077 127° Southeast  Level Estimated
11:05AM 53.5959 10.0641 307° West  Level Estimated
11:06AM 53.6669 9.9077 127° Southeast  Level Estimated
11:07AM 53.5959 10.0641 307° West  Level Estimated
11:08AM 53.6669 9.9077 127° Southeast  Level Estimated
11:09AM 53.5959 10.0641 307° West  Level Estimated
11:10AM 53.6669 9.9077 127° Southeast  Level Estimated
11:11AM 53.5959 10.0641 307° West  Level Estimated
11:12AM 53.6669 9.9077 127° Southeast  Level Estimated
11:13AM 53.5959 10.0641 307° West  Level Estimated
11:14AM 53.6669 9.9077 127° Southeast  Level Estimated
11:15AM 53.5959 10.0641 307° West  Level Estimated
11:16AM 53.6669 9.9077 127° Southeast  Level Estimated
11:17AM 53.5959 10.0641 127° Southeast  Level Estimated